Time;durP1;ratioP1;P1;durP2;ratioP2;P2;SDS_P1;SDS_P2;PMS_P1;PMS_P2;Temp;Humidity;BMP_temperature;BMP_pressure;BME280_temperature;BME280_humidity;BME280_pressure;Samples;Min_cycle;Max_cycle;Signal;HPM_P1;HPM_P2
2022/12/20 00:01:18;;;;;;;;;;;;;;;17.06;45.89;100457.00;4791048;29;6813;-72
2022/12/20 00:03:44;;;;;;;;;;;;;;;17.11;45.90;100450.22;4805562;29;7182;-73
2022/12/20 00:06:12;;;;;;;;;;;;;;;17.12;46.13;100448.50;4784442;29;6797;-73
2022/12/20 00:08:38;;;;;;;;;;;;;;;17.13;46.25;100448.50;4784111;29;7112;-73
2022/12/20 00:11:07;;;;;;;;;;;;;;;17.13;45.49;100445.94;4797119;29;8518;-73
2022/12/20 00:13:33;;;;;;;;;;;;;;;17.12;46.16;100438.16;4779904;29;6953;-72
2022/12/20 00:16:10;;;;;;;;;;;;;;;17.08;45.83;100439.78;4800711;29;6793;-73
2022/12/20 00:18:38;;;;;;;;;;;;;;;17.05;45.98;100447.50;4804026;29;6828;-73
2022/12/20 00:21:07;;;;;;;;;;;;;;;17.03;45.87;100449.16;4783747;29;8359;-73
2022/12/20 00:23:35;;;;;;;;;;;;;;;17.02;46.07;100450.88;4779921;29;7071;-74
2022/12/20 00:26:11;;;;;;;;;;;;;;;17.01;46.03;100454.31;4786592;29;7980;-73
2022/12/20 00:28:39;;;;;;;;;;;;;;;17.00;46.16;100442.22;4780816;29;7181;-73
2022/12/20 00:31:07;;;;;;;;;;;;;;;16.98;45.99;100451.59;4784938;29;7025;-73
2022/12/20 00:33:35;;;;;;;;;;;;;;;16.96;46.30;100460.22;4783266;29;6817;-73
2022/12/20 00:36:01;;;;;;;;;;;;;;;16.92;46.22;100444.59;4775404;29;6809;-72
2022/12/20 00:38:27;;;;;;;;;;;;;;;16.89;46.29;100433.28;4780822;29;7041;-73
2022/12/20 00:41:14;;;;;;;;;;;;;;;16.86;46.16;100428.94;4794246;29;6789;-72
2022/12/20 00:43:40;;;;;;;;;;;;;;;16.85;46.63;100429.78;4795450;29;7201;-73
2022/12/20 00:46:10;;;;;;;;;;;;;;;16.85;46.08;100421.13;4796421;29;6945;-72
2022/12/20 00:48:36;;;;;;;;;;;;;;;16.87;46.11;100429.78;4785030;29;6974;-73
2022/12/20 00:51:06;;;;;;;;;;;;;;;16.88;46.33;100416.91;4780472;29;6797;-73
2022/12/20 00:53:32;;;;;;;;;;;;;;;16.91;46.26;100431.63;4778731;29;6773;-72
2022/12/20 00:55:58;;;;;;;;;;;;;;;16.92;46.21;100423.00;4779424;29;7218;-73
2022/12/20 00:58:24;;;;;;;;;;;;;;;16.90;46.11;100402.25;4761533;29;8506;-73
2022/12/20 01:00:51;;;;;;;;;;;;;;;16.87;46.26;100411.66;4785291;29;7871;-73
2022/12/20 01:03:17;;;;;;;;;;;;;;;16.87;46.66;100403.91;4785231;29;8171;-72
2022/12/20 01:05:52;;;;;;;;;;;;;;;16.87;46.53;100403.91;4783226;29;6922;-73
2022/12/20 01:08:18;;;;;;;;;;;;;;;16.88;46.44;100406.53;4781605;29;6825;-73
2022/12/20 01:10:44;;;;;;;;;;;;;;;16.89;46.43;100394.44;4780707;29;6781;-73
2022/12/20 01:13:10;;;;;;;;;;;;;;;16.87;46.19;100409.09;4778437;29;6785;-73
2022/12/20 01:15:36;;;;;;;;;;;;;;;16.86;45.95;100408.22;4783257;29;8086;-73
2022/12/20 01:18:01;;;;;;;;;;;;;;;16.85;46.29;100410.78;4768284;29;8638;-73
2022/12/20 01:20:27;;;;;;;;;;;;;;;16.78;46.49;100410.63;4792782;29;8438;-73
2022/12/20 01:22:52;;;;;;;;;;;;;;;16.69;46.31;100418.16;4779584;29;8478;-73
2022/12/20 01:25:18;;;;;;;;;;;;;;;16.58;46.78;100411.88;4781823;29;6781;-73
2022/12/20 01:27:44;;;;;;;;;;;;;;;16.47;47.21;100403.88;4786183;29;6962;-73
2022/12/20 01:30:10;;;;;;;;;;;;;;;16.40;47.36;100418.34;4786855;29;7112;-73
2022/12/20 01:32:36;;;;;;;;;;;;;;;16.38;47.98;100420.94;4798764;29;11304;-72
2022/12/20 01:35:02;;;;;;;;;;;;;;;16.38;47.76;100420.03;4778453;29;6977;-73
2022/12/20 01:37:28;;;;;;;;;;;;;;;16.39;47.58;100421.78;4781103;29;6797;-72
2022/12/20 01:39:53;;;;;;;;;;;;;;;16.41;47.83;100419.25;4779244;29;6785;-72
2022/12/20 01:42:20;;;;;;;;;;;;;;;16.41;47.90;100414.94;4781793;29;6945;-72
2022/12/20 01:44:45;;;;;;;;;;;;;;;16.42;47.88;100408.94;4787756;29;6900;-72
2022/12/20 01:47:12;;;;;;;;;;;;;;;16.43;47.86;100390.00;4796946;29;6988;-72
2022/12/20 01:49:44;;;;;;;;;;;;;;;16.44;47.60;100388.28;4800710;29;7045;-72
2022/12/20 01:52:18;;;;;;;;;;;;;;;16.44;47.57;100388.28;4792533;29;7349;-72
2022/12/20 01:55:06;;;;;;;;;;;;;;;16.43;47.66;100394.28;4780814;29;7266;-72
2022/12/20 01:57:47;;;;;;;;;;;;;;;16.43;47.56;100387.41;4763210;29;8419;-73
2022/12/20 02:00:15;;;;;;;;;;;;;;;16.44;47.85;100391.75;4780804;29;8332;-72
2022/12/20 02:02:42;;;;;;;;;;;;;;;16.45;48.20;100384.84;4781702;29;6785;-72
2022/12/20 02:05:08;;;;;;;;;;;;;;;16.48;47.82;100383.19;4764781;29;10413;-73
2022/12/20 02:07:37;;;;;;;;;;;;;;;16.52;48.02;100386.75;4782993;29;6983;-72
2022/12/20 02:10:07;;;;;;;;;;;;;;;16.52;47.59;100379.88;4778111;29;6798;-72
2022/12/20 02:12:44;;;;;;;;;;;;;;;16.54;47.47;100376.44;4779796;29;8060;-72
2022/12/20 02:15:10;;;;;;;;;;;;;;;16.52;47.57;100361.75;4786431;29;6981;-73
2022/12/20 02:18:10;;;;;;;;;;;;;;;16.54;47.53;100374.72;4798332;29;6777;-72
2022/12/20 02:21:11;;;;;;;;;;;;;;;16.50;47.75;100370.31;4797178;29;9734;-73
2022/12/20 02:24:25;;;;;;;;;;;;;;;16.47;47.94;100373.69;4796426;29;8557;-72
2022/12/20 02:27:41;;;;;;;;;;;;;;;16.32;48.01;100376.78;4794825;29;7082;-73
2022/12/20 02:30:21;;;;;;;;;;;;;;;16.06;48.85;100384.78;4786596;29;6805;-72
2022/12/20 02:33:04;;;;;;;;;;;;;;;15.85;49.18;100390.25;4800728;29;11050;-73
2022/12/20 02:35:37;;;;;;;;;;;;;;;15.66;49.83;100387.19;4785461;29;6869;-72
2022/12/20 02:38:30;;;;;;;;;;;;;;;15.51;50.11;100377.31;4782506;29;6821;-72
2022/12/20 02:41:07;;;;;;;;;;;;;;;15.41;50.67;100376.16;4778590;29;7945;-72
2022/12/20 02:46:25;;;;;;;;;;;;;;;15.26;51.04;100374.03;4787562;29;6821;-73
2022/12/20 02:48:57;;;;;;;;;;;;;;;15.25;50.99;100379.13;4783999;29;6805;-73
2022/12/20 02:51:27;;;;;;;;;;;;;;;15.26;51.63;100386.09;4799412;29;6813;-73
2022/12/20 02:53:54;;;;;;;;;;;;;;;15.29;52.02;100386.16;4784500;29;6805;-72
2022/12/20 02:56:40;;;;;;;;;;;;;;;15.35;51.44;100375.97;4780190;29;7154;-73
2022/12/20 02:59:17;;;;;;;;;;;;;;;15.40;51.43;100376.13;4797391;29;7177;-72
2022/12/20 03:01:53;;;;;;;;;;;;;;;15.44;51.50;100365.06;4783020;29;6813;-73
2022/12/20 03:04:28;;;;;;;;;;;;;;;15.49;51.66;100362.59;4788603;29;7783;-73
2022/12/20 03:07:08;;;;;;;;;;;;;;;15.53;51.46;100374.75;4781794;29;6865;-72
2022/12/20 03:09:38;;;;;;;;;;;;;;;15.58;51.31;100375.78;4796641;29;7982;-72
2022/12/20 03:12:04;;;;;;;;;;;;;;;15.61;51.17;100372.41;4795599;29;6801;-73
2022/12/20 03:14:30;;;;;;;;;;;;;;;15.59;51.27;100372.34;4761064;29;6987;-73
2022/12/20 03:16:55;;;;;;;;;;;;;;;15.54;51.45;100368.75;4782065;29;6988;-73
2022/12/20 03:19:21;;;;;;;;;;;;;;;15.45;51.36;100365.91;4785143;29;7605;-73
2022/12/20 03:21:47;;;;;;;;;;;;;;;15.31;51.71;100369.00;4784391;29;6787;-73
2022/12/20 03:24:13;;;;;;;;;;;;;;;15.18;51.49;100372.94;4789351;29;7030;-73
2022/12/20 03:26:40;;;;;;;;;;;;;;;15.06;51.94;100372.59;4784169;29;6957;-73
2022/12/20 03:29:06;;;;;;;;;;;;;;;14.93;52.52;100372.25;4799078;29;6793;-73
2022/12/20 03:31:32;;;;;;;;;;;;;;;14.82;53.02;100371.91;4788826;29;6797;-73
2022/12/20 03:33:58;;;;;;;;;;;;;;;14.77;52.49;100370.03;4785706;29;7959;-73
2022/12/20 03:36:24;;;;;;;;;;;;;;;14.72;52.82;100369.84;4797476;29;7236;-74
2022/12/20 03:38:51;;;;;;;;;;;;;;;14.72;52.97;100375.00;4799664;29;6983;-74
2022/12/20 03:41:18;;;;;;;;;;;;;;;14.71;53.70;100365.53;4776802;29;8421;-73
2022/12/20 03:43:44;;;;;;;;;;;;;;;14.67;53.53;100364.53;4781202;29;6802;-73
2022/12/20 03:46:10;;;;;;;;;;;;;;;14.64;53.69;100368.72;4796417;29;6854;-73
2022/12/20 03:48:35;;;;;;;;;;;;;;;14.60;54.51;100367.75;4762321;29;7263;-73
2022/12/20 03:51:01;;;;;;;;;;;;;;;14.60;53.95;100375.50;4783515;29;6770;-73
2022/12/20 03:53:27;;;;;;;;;;;;;;;14.58;54.14;100362.56;4783933;29;7283;-73
2022/12/20 03:55:52;;;;;;;;;;;;;;;14.57;54.10;100365.09;4781423;29;7029;-73
2022/12/20 03:58:18;;;;;;;;;;;;;;;14.54;54.67;100362.44;4752685;29;7294;-73
2022/12/20 04:00:43;;;;;;;;;;;;;;;14.49;54.66;100364.88;4783254;29;7235;-73
2022/12/20 04:03:09;;;;;;;;;;;;;;;14.44;55.11;100362.13;4784062;29;8798;-73
2022/12/20 04:05:35;;;;;;;;;;;;;;;14.44;54.62;100346.66;4783176;29;6790;-73
2022/12/20 04:08:01;;;;;;;;;;;;;;;14.43;54.90;100346.59;4779651;29;7231;-73
2022/12/20 04:10:26;;;;;;;;;;;;;;;14.45;55.25;100350.09;4792734;29;6853;-73
2022/12/20 04:12:52;;;;;;;;;;;;;;;14.49;55.57;100356.25;4783587;29;6785;-73
2022/12/20 04:15:18;;;;;;;;;;;;;;;14.54;55.32;100357.28;4791784;29;6979;-73
2022/12/20 04:17:43;;;;;;;;;;;;;;;14.58;55.00;100354.84;4786332;29;6857;-73
2022/12/20 04:20:20;;;;;;;;;;;;;;;14.62;54.63;100336.88;4781106;29;6870;-73
2022/12/20 04:22:47;;;;;;;;;;;;;;;14.65;55.33;100326.63;4783202;29;7005;-73
2022/12/20 04:25:15;;;;;;;;;;;;;;;14.71;55.26;100330.25;4762077;29;7299;-73
2022/12/20 04:27:41;;;;;;;;;;;;;;;14.79;54.41;100327.06;4778874;29;6813;-73
2022/12/20 04:30:08;;;;;;;;;;;;;;;14.83;54.76;100308.28;4781730;29;6789;-73
2022/12/20 04:32:33;;;;;;;;;;;;;;;14.92;53.94;100307.66;4766057;29;8696;-73
2022/12/20 04:34:59;;;;;;;;;;;;;;;14.99;53.67;100317.34;4771162;29;6956;-73
2022/12/20 04:37:24;;;;;;;;;;;;;;;15.02;53.96;100320.00;4792380;29;6765;-73
2022/12/20 04:39:50;;;;;;;;;;;;;;;15.06;54.11;100306.34;4776944;29;7747;-74
2022/12/20 04:42:16;;;;;;;;;;;;;;;15.09;53.56;100305.56;4778546;29;8353;-73
2022/12/20 04:44:41;;;;;;;;;;;;;;;15.13;53.33;100303.09;4795620;29;6761;-73
2022/12/20 04:47:08;;;;;;;;;;;;;;;15.20;53.60;100308.44;4787245;29;6830;-73
2022/12/20 04:49:34;;;;;;;;;;;;;;;15.24;52.82;100295.66;4777702;29;7897;-73
2022/12/20 04:53:46;;;;;;;;;;;;;;;15.27;52.87;100295.75;4783273;29;6769;-73
2022/12/20 04:54:46;;;;;;;;;;;;;;;15.33;53.26;100301.91;4794195;29;7012;-73
2022/12/20 04:57:12;;;;;;;;;;;;;;;15.39;52.87;100296.91;4755557;29;7037;-73
2022/12/20 04:59:38;;;;;;;;;;;;;;;15.40;52.75;100288.31;4782711;29;7125;-73
2022/12/20 05:02:04;;;;;;;;;;;;;;;15.44;52.62;100303.06;4773600;29;6841;-73
2022/12/20 05:04:29;;;;;;;;;;;;;;;15.46;52.85;100287.63;4793908;29;6837;-73
2022/12/20 05:06:55;;;;;;;;;;;;;;;15.47;52.42;100281.63;4769285;29;7307;-73
2022/12/20 05:09:21;;;;;;;;;;;;;;;15.49;52.54;100285.97;4759691;29;7045;-72
2022/12/20 05:11:48;;;;;;;;;;;;;;;15.53;52.71;100276.59;4788188;29;6797;-72
2022/12/20 05:14:14;;;;;;;;;;;;;;;15.57;52.57;100290.47;4770651;29;7165;-73
2022/12/20 05:16:39;;;;;;;;;;;;;;;15.61;51.72;100277.66;4799508;29;6861;-73
2022/12/20 05:19:05;;;;;;;;;;;;;;;15.64;52.05;100275.16;4800309;29;6806;-73
2022/12/20 05:26:59;;;;;;;;;;;;;;;15.75;51.42;100272.84;4801392;29;6817;-73
2022/12/20 05:29:25;;;;;;;;;;;;;;;15.76;51.42;100263.41;4779666;29;6781;-73
2022/12/20 05:31:51;;;;;;;;;;;;;;;15.80;51.37;100266.09;4754644;29;7151;-73
2022/12/20 05:34:16;;;;;;;;;;;;;;;15.85;51.70;100273.09;4783145;29;6953;-73
2022/12/20 05:36:42;;;;;;;;;;;;;;;15.89;51.38;100265.44;4766226;29;6964;-73
2022/12/20 05:39:10;;;;;;;;;;;;;;;15.92;50.78;100254.34;4801895;29;6773;-73
2022/12/20 05:41:37;;;;;;;;;;;;;;;15.96;51.02;100267.38;4765606;29;7251;-73
2022/12/20 05:44:03;;;;;;;;;;;;;;;16.00;50.85;100264.84;4803800;29;6992;-72
2022/12/20 05:46:29;;;;;;;;;;;;;;;16.02;50.71;100258.00;4769920;29;7172;-73
2022/12/20 05:48:54;;;;;;;;;;;;;;;16.03;50.86;100244.22;4782061;29;6801;-72
2022/12/20 05:51:20;;;;;;;;;;;;;;;16.07;50.57;100262.44;4789571;29;8785;-72
2022/12/20 05:53:46;;;;;;;;;;;;;;;16.10;50.63;100256.47;4803383;29;6785;-72
2022/12/20 05:56:11;;;;;;;;;;;;;;;16.12;50.52;100257.38;4801426;29;7329;-72
2022/12/20 05:58:39;;;;;;;;;;;;;;;16.13;50.26;100251.41;4786834;29;6777;-73
2022/12/20 06:01:07;;;;;;;;;;;;;;;16.16;50.38;100250.56;4782976;29;8485;-73
2022/12/20 06:03:33;;;;;;;;;;;;;;;16.17;50.43;100249.72;4799460;29;7949;-73
2022/12/20 06:05:58;;;;;;;;;;;;;;;16.16;50.20;100238.53;4799798;29;6837;-73
2022/12/20 06:08:24;;;;;;;;;;;;;;;16.20;49.81;100250.66;4806175;29;6923;-73
2022/12/20 06:10:50;;;;;;;;;;;;;;;16.23;50.41;100245.59;4787167;29;6773;-73
2022/12/20 06:13:16;;;;;;;;;;;;;;;16.24;50.05;100239.56;4782265;29;6781;-73
2022/12/20 06:15:43;;;;;;;;;;;;;;;16.26;49.79;100242.16;4782979;29;11624;-73
2022/12/20 06:18:08;;;;;;;;;;;;;;;16.29;49.54;100243.97;4790979;29;6797;-73
2022/12/20 06:20:35;;;;;;;;;;;;;;;16.31;49.96;100244.84;4802414;29;7010;-72
2022/12/20 06:23:02;;;;;;;;;;;;;;;16.31;49.33;100229.34;4784436;29;7123;-73
2022/12/20 06:25:29;;;;;;;;;;;;;;;16.31;49.00;100227.66;4785042;29;8943;-73
2022/12/20 06:27:54;;;;;;;;;;;;;;;16.29;49.84;100226.75;4790829;29;6797;-73
2022/12/20 06:30:21;;;;;;;;;;;;;;;16.28;49.47;100216.34;4782595;29;7189;-73
2022/12/20 06:32:46;;;;;;;;;;;;;;;16.29;48.87;100206.06;4793959;29;6781;-73
2022/12/20 06:35:13;;;;;;;;;;;;;;;16.30;49.03;100205.22;4794725;29;7196;-73
2022/12/20 06:37:39;;;;;;;;;;;;;;;16.30;49.17;100214.66;4784502;29;7662;-73
2022/12/20 06:40:08;;;;;;;;;;;;;;;16.32;48.91;100205.22;4790824;29;6980;-73
2022/12/20 06:42:33;;;;;;;;;;;;;;;16.33;48.76;100207.00;4786653;29;6801;-73
2022/12/20 06:44:59;;;;;;;;;;;;;;;16.35;48.82;100208.75;4789245;29;6849;-73
2022/12/20 06:47:24;;;;;;;;;;;;;;;16.35;48.82;100213.94;4787375;29;6955;-73
2022/12/20 06:49:50;;;;;;;;;;;;;;;16.38;48.63;100210.53;4769215;29;6958;-73
2022/12/20 06:52:16;;;;;;;;;;;;;;;16.40;48.72;100211.44;4807138;29;6926;-73
2022/12/20 06:54:41;;;;;;;;;;;;;;;16.45;48.87;100208.94;4788135;29;6765;-73
2022/12/20 06:57:07;;;;;;;;;;;;;;;16.46;48.82;100211.56;4806603;29;6936;-73
2022/12/20 06:59:33;;;;;;;;;;;;;;;16.48;48.04;100214.22;4802588;29;7305;-73
2022/12/20 07:01:59;;;;;;;;;;;;;;;16.51;48.42;100203.91;4787853;29;6789;-73
2022/12/20 07:04:24;;;;;;;;;;;;;;;16.54;48.12;100190.19;4800459;29;6769;-73
2022/12/20 07:06:50;;;;;;;;;;;;;;;16.55;48.18;100184.16;4803659;29;8479;-72
2022/12/20 07:09:16;;;;;;;;;;;;;;;16.53;48.19;100194.47;4796454;29;8500;-72
2022/12/20 07:11:42;;;;;;;;;;;;;;;16.53;47.98;100194.47;4779024;29;6949;-72
2022/12/20 07:14:08;;;;;;;;;;;;;;;16.50;48.30;100190.09;4798107;29;6825;-73
2022/12/20 07:16:34;;;;;;;;;;;;;;;16.47;48.06;100190.03;4795928;29;6785;-72
2022/12/20 07:19:00;;;;;;;;;;;;;;;16.45;48.09;100188.25;4785279;29;7376;-73
2022/12/20 07:21:27;;;;;;;;;;;;;;;16.44;48.08;100195.16;4788182;29;7209;-72
2022/12/20 07:23:54;;;;;;;;;;;;;;;16.44;48.01;100192.56;4787253;29;7899;-73
2022/12/20 07:26:20;;;;;;;;;;;;;;;16.46;47.99;100195.16;4803204;29;6946;-73
2022/12/20 07:28:46;;;;;;;;;;;;;;;16.47;48.30;100202.97;4785083;29;7088;-73
2022/12/20 07:31:11;;;;;;;;;;;;;;;16.51;48.30;100188.41;4803145;29;6785;-73
2022/12/20 07:33:37;;;;;;;;;;;;;;;16.52;48.03;100203.97;4786149;29;6988;-73
2022/12/20 07:36:11;;;;;;;;;;;;;;;16.55;48.27;100191.91;4802583;29;6844;-73
2022/12/20 07:38:37;;;;;;;;;;;;;;;16.57;48.35;100208.34;4787518;29;8577;-73
2022/12/20 07:41:12;;;;;;;;;;;;;;;16.57;48.13;100214.41;4783315;29;6797;-73
2022/12/20 07:43:38;;;;;;;;;;;;;;;16.59;47.97;100210.13;4791219;29;7008;-73
2022/12/20 07:46:05;;;;;;;;;;;;;;;16.60;47.92;100206.69;4791499;29;7155;-73
2022/12/20 07:48:31;;;;;;;;;;;;;;;16.62;47.90;100214.50;4802873;29;6793;-73
2022/12/20 07:51:05;;;;;;;;;;;;;;;16.64;48.00;100211.06;4781893;29;6980;-73
2022/12/20 07:53:39;;;;;;;;;;;;;;;16.67;47.50;100212.84;4789925;29;6979;-73
2022/12/20 07:56:08;;;;;;;;;;;;;;;16.69;47.62;100203.41;4794656;29;8573;-72
2022/12/20 07:58:38;;;;;;;;;;;;;;;16.71;47.84;100199.16;4792726;29;7225;-72
2022/12/20 08:01:05;;;;;;;;;;;;;;;16.72;47.45;100200.00;4772896;29;7820;-72
2022/12/20 08:03:41;;;;;;;;;;;;;;;16.73;47.58;100197.47;4785779;29;7429;-72
2022/12/20 08:06:08;;;;;;;;;;;;;;;16.75;47.44;100189.69;4780868;29;7958;-72
2022/12/20 08:08:41;;;;;;;;;;;;;;;16.79;47.62;100189.78;4770281;29;7376;-72
2022/12/20 08:11:10;;;;;;;;;;;;;;;16.82;47.34;100193.31;4785227;29;7888;-72
2022/12/20 08:13:36;;;;;;;;;;;;;;;16.81;47.14;100192.41;4780715;29;8756;-72
2022/12/20 08:16:02;;;;;;;;;;;;;;;16.83;47.11;100200.22;4777883;29;7423;-72
2022/12/20 08:18:28;;;;;;;;;;;;;;;16.84;46.89;100200.22;4800490;29;11803;-72
2022/12/20 08:20:53;;;;;;;;;;;;;;;16.85;47.28;100198.53;4775941;29;6777;-72
2022/12/20 08:23:19;;;;;;;;;;;;;;;16.88;47.30;100198.56;4803146;29;6949;-72
2022/12/20 08:25:45;;;;;;;;;;;;;;;16.87;47.24;100194.25;4783599;29;6781;-72
2022/12/20 08:28:11;;;;;;;;;;;;;;;16.89;47.11;100195.16;4769257;29;9487;-72
2022/12/20 08:30:36;;;;;;;;;;;;;;;16.89;47.28;100208.97;4783046;29;6789;-72
2022/12/20 08:33:02;;;;;;;;;;;;;;;16.92;46.88;100200.41;4799380;29;6777;-72
2022/12/20 08:35:28;;;;;;;;;;;;;;;16.92;46.88;100203.00;4804064;29;6998;-72
2022/12/20 08:37:53;;;;;;;;;;;;;;;16.92;47.06;100210.75;4786229;29;6773;-73
2022/12/20 08:40:19;;;;;;;;;;;;;;;16.94;46.72;100198.72;4799795;29;8447;-73
2022/12/20 08:42:46;;;;;;;;;;;;;;;16.92;46.94;100203.84;4779859;29;6992;-72
2022/12/20 08:45:12;;;;;;;;;;;;;;;16.90;46.76;100204.66;4802462;29;8007;-73
2022/12/20 08:47:38;;;;;;;;;;;;;;;16.85;46.77;100193.34;4781937;29;9397;-72
2022/12/20 08:50:04;;;;;;;;;;;;;;;16.79;47.12;100200.16;4782878;29;7361;-72
2022/12/20 08:52:30;;;;;;;;;;;;;;;16.75;47.41;100219.06;4784901;29;6993;-72
2022/12/20 08:54:56;;;;;;;;;;;;;;;16.70;47.43;100215.50;4782681;29;7197;-74
2022/12/20 08:57:21;;;;;;;;;;;;;;;16.63;47.74;100218.81;4783010;29;6922;-72
2022/12/20 08:59:47;;;;;;;;;;;;;;;16.58;47.77;100218.72;4783733;29;6785;-72
2022/12/20 09:02:13;;;;;;;;;;;;;;;16.54;47.68;100219.50;4794418;29;6761;-72
2022/12/20 09:04:38;;;;;;;;;;;;;;;16.46;47.64;100214.16;4787803;29;8545;-72
2022/12/20 09:07:04;;;;;;;;;;;;;;;16.41;47.84;100207.16;4781467;29;6789;-72
2022/12/20 09:09:30;;;;;;;;;;;;;;;16.29;48.13;100200.88;4794970;29;6777;-72
2022/12/20 09:11:56;;;;;;;;;;;;;;;16.16;48.79;100186.81;4788524;29;7320;-72
2022/12/20 09:14:22;;;;;;;;;;;;;;;16.06;49.01;100182.28;4799110;29;6789;-72
2022/12/20 09:16:48;;;;;;;;;;;;;;;15.98;49.42;100191.56;4785544;29;6984;-72
2022/12/20 09:19:15;;;;;;;;;;;;;;;15.90;49.50;100188.78;4798155;29;7847;-72
2022/12/20 09:21:41;;;;;;;;;;;;;;;15.86;49.89;100187.84;4786328;29;7039;-72
2022/12/20 09:24:08;;;;;;;;;;;;;;;15.87;50.27;100194.75;4805517;29;7242;-72
2022/12/20 09:26:34;;;;;;;;;;;;;;;15.91;50.18;100191.44;4791528;29;7272;-72
2022/12/20 09:29:04;;;;;;;;;;;;;;;15.98;50.25;100196.75;4782675;29;6848;-72
2022/12/20 09:31:29;;;;;;;;;;;;;;;16.05;50.34;100193.47;4791363;29;7183;-72
2022/12/20 09:33:57;;;;;;;;;;;;;;;16.12;50.09;100194.47;4801385;29;11038;-72
2022/12/20 09:36:26;;;;;;;;;;;;;;;16.18;49.98;100198.06;4786560;29;6812;-72
2022/12/20 09:38:54;;;;;;;;;;;;;;;16.24;50.00;100190.44;4792378;29;7000;-72
2022/12/20 09:41:37;;;;;;;;;;;;;;;16.33;49.83;100194.06;4796223;29;8643;-72
2022/12/20 09:44:19;;;;;;;;;;;;;;;16.38;49.90;100193.31;4807767;29;7430;-72
2022/12/20 09:46:58;;;;;;;;;;;;;;;16.45;49.84;100191.72;4794123;29;7272;-72
2022/12/20 09:49:36;;;;;;;;;;;;;;;16.55;49.72;100178.97;4777937;29;8914;-72
2022/12/20 09:52:21;;;;;;;;;;;;;;;16.62;49.53;100184.28;4792566;29;6797;-72
2022/12/20 09:54:56;;;;;;;;;;;;;;;16.72;49.59;100192.25;4803510;29;7322;-71
2022/12/20 09:57:55;;;;;;;;;;;;;;;16.81;49.47;100187.25;4805424;29;6777;-72
2022/12/20 10:00:21;;;;;;;;;;;;;;;16.87;49.10;100169.25;4804108;29;7264;-72
2022/12/20 10:02:48;;;;;;;;;;;;;;;16.99;49.32;100186.69;4786503;29;6785;-72
2022/12/20 10:05:33;;;;;;;;;;;;;;;17.10;48.73;100186.09;4786279;29;7109;-72
2022/12/20 10:08:18;;;;;;;;;;;;;;;17.20;48.73;100182.81;4799057;29;7207;-72
2022/12/20 10:11:07;;;;;;;;;;;;;;;17.27;48.58;100171.69;4798236;29;6992;-72
2022/12/20 10:14:14;;;;;;;;;;;;;;;17.32;48.36;100175.25;4789919;29;7189;-72
2022/12/20 10:17:00;;;;;;;;;;;;;;;17.36;47.92;100160.63;4777121;29;10088;-72
2022/12/20 10:20:08;;;;;;;;;;;;;;;17.36;48.30;100165.81;4790812;29;7317;-72
2022/12/20 10:22:59;;;;;;;;;;;;;;;17.42;48.07;100170.22;4803731;29;6829;-72
2022/12/20 10:25:32;;;;;;;;;;;;;;;17.45;48.25;100162.47;4788199;29;6813;-72
2022/12/20 10:28:10;;;;;;;;;;;;;;;17.55;48.00;100154.00;4768828;29;6981;-72
2022/12/20 10:30:35;;;;;;;;;;;;;;;17.67;48.21;100137.78;4772625;29;8491;-72
2022/12/20 10:33:01;;;;;;;;;;;;;;;17.81;48.29;100148.34;4800397;29;7148;-72
2022/12/20 10:35:36;;;;;;;;;;;;;;;17.98;47.59;100138.19;4799176;29;6793;-72
2022/12/20 10:38:11;;;;;;;;;;;;;;;18.16;47.45;100137.63;4782937;29;7500;-72
2022/12/20 10:40:41;;;;;;;;;;;;;;;18.29;47.51;100137.75;4782912;29;7985;-72
2022/12/20 10:43:19;;;;;;;;;;;;;;;18.37;47.24;100146.50;4777752;29;6817;-72
2022/12/20 10:46:04;;;;;;;;;;;;;;;18.35;46.87;100140.44;4790345;29;6793;-72
2022/12/20 10:48:35;;;;;;;;;;;;;;;18.34;47.07;100136.06;4782759;29;6821;-72
2022/12/20 10:51:09;;;;;;;;;;;;;;;18.36;46.94;100126.59;4804538;29;7008;-72
2022/12/20 10:53:48;;;;;;;;;;;;;;;18.38;46.62;100134.38;4782903;29;6866;-72
2022/12/20 10:56:31;;;;;;;;;;;;;;;18.38;47.45;100127.50;4788428;29;6790;-72
2022/12/20 10:59:40;;;;;;;;;;;;;;;18.37;46.71;100133.53;4780557;29;6785;-72
2022/12/20 11:02:35;;;;;;;;;;;;;;;18.36;46.57;100129.19;4784291;29;7898;-72
2022/12/20 11:05:10;;;;;;;;;;;;;;;18.32;47.01;100138.66;4795449;29;6805;-72
2022/12/20 11:07:58;;;;;;;;;;;;;;;18.28;46.44;100133.44;4793896;29;8508;-72
2022/12/20 11:10:27;;;;;;;;;;;;;;;18.24;46.39;100121.25;4800653;29;6976;-72
2022/12/20 11:12:57;;;;;;;;;;;;;;;18.22;46.65;100133.34;4778275;29;7233;-72
2022/12/20 11:15:34;;;;;;;;;;;;;;;18.20;46.53;100125.53;4781098;29;6847;-72
2022/12/20 11:18:12;;;;;;;;;;;;;;;18.21;46.69;100131.59;4803124;29;6954;-72
2022/12/20 11:21:22;;;;;;;;;;;;;;;18.22;46.59;100122.97;4797731;29;6977;-72
2022/12/20 11:24:10;;;;;;;;;;;;;;;18.22;46.89;100120.38;4793166;29;7648;-72
2022/12/20 11:26:57;;;;;;;;;;;;;;;18.21;46.67;100105.66;4786061;29;6829;-72
2022/12/20 11:30:03;;;;;;;;;;;;;;;18.22;46.87;100102.22;4797284;29;7827;-72
2022/12/20 11:32:58;;;;;;;;;;;;;;;18.16;46.54;100119.47;4793078;29;8865;-73
2022/12/20 11:35:49;;;;;;;;;;;;;;;18.12;47.08;100116.81;4792125;29;6813;-72
2022/12/20 11:38:35;;;;;;;;;;;;;;;18.07;46.53;100098.59;4796523;29;7326;-72
2022/12/20 11:41:09;;;;;;;;;;;;;;;18.06;46.84;100099.47;4781746;29;6826;-72
2022/12/20 11:44:20;;;;;;;;;;;;;;;18.02;46.83;100097.63;4779805;29;7736;-72
2022/12/20 11:47:17;;;;;;;;;;;;;;;17.96;47.46;100105.31;4800352;29;6805;-72
2022/12/20 11:50:07;;;;;;;;;;;;;;;17.77;47.61;100107.69;4783893;29;6801;-72
2022/12/20 11:52:53;;;;;;;;;;;;;;;17.55;48.66;100117.72;4800806;29;7043;-73
2022/12/20 11:55:30;;;;;;;;;;;;;;;17.30;49.43;100108.72;4770009;29;6806;-73
2022/12/20 11:58:26;;;;;;;;;;;;;;;17.06;49.79;100116.09;4785199;29;6825;-73
2022/12/20 12:01:00;;;;;;;;;;;;;;;16.82;51.00;100113.06;4781697;29;6808;-72
2022/12/20 12:03:34;;;;;;;;;;;;;;;16.60;51.63;100102.31;4779219;29;7259;-73
2022/12/20 12:06:18;;;;;;;;;;;;;;;16.38;52.60;100114.84;4773091;29;14266;-72
2022/12/20 12:09:07;;;;;;;;;;;;;;;16.19;53.56;100109.31;4784396;29;6833;-72
2022/12/20 12:11:50;;;;;;;;;;;;;;;16.02;53.31;100108.97;4777542;29;7205;-73
2022/12/20 12:14:50;;;;;;;;;;;;;;;15.90;54.23;100098.34;4785443;29;6981;-72
2022/12/20 12:17:40;;;;;;;;;;;;;;;15.80;54.91;100098.16;4782576;29;6885;-73
2022/12/20 12:20:41;;;;;;;;;;;;;;;15.73;54.86;100088.50;4796372;29;6808;-72
2022/12/20 12:23:28;;;;;;;;;;;;;;;15.66;55.26;100092.69;4783441;29;6805;-73
2022/12/20 12:25:55;;;;;;;;;;;;;;;15.61;55.50;100086.50;4784101;29;7889;-73
2022/12/20 12:28:22;;;;;;;;;;;;;;;15.58;56.11;100088.16;4774565;29;7334;-72
2022/12/20 12:31:02;;;;;;;;;;;;;;;15.51;56.15;100071.66;4778282;29;6817;-72
2022/12/20 12:33:39;;;;;;;;;;;;;;;15.48;56.30;100066.44;4787116;29;7054;-73
2022/12/20 12:36:42;;;;;;;;;;;;;;;15.45;56.43;100064.66;4775006;29;6934;-73
2022/12/20 12:39:44;;;;;;;;;;;;;;;15.41;56.84;100068.88;4796205;29;6889;-73
2022/12/20 12:42:31;;;;;;;;;;;;;;;15.38;56.47;100065.34;4794501;29;7580;-73
2022/12/20 12:45:13;;;;;;;;;;;;;;;15.37;56.57;100068.75;4789798;29;7204;-73
2022/12/20 12:47:56;;;;;;;;;;;;;;;15.38;56.39;100073.06;4787619;29;8562;-73
2022/12/20 12:50:29;;;;;;;;;;;;;;;15.40;56.33;100063.66;4788772;29;7097;-73
2022/12/20 12:53:05;;;;;;;;;;;;;;;15.47;56.35;100064.69;4787701;29;8018;-73
2022/12/20 12:55:52;;;;;;;;;;;;;;;15.53;56.60;100062.22;4783493;29;6873;-73
2022/12/20 12:58:23;;;;;;;;;;;;;;;15.56;56.14;100049.41;4784307;29;8734;-73
2022/12/20 13:01:07;;;;;;;;;;;;;;;15.58;56.33;100067.50;4778551;29;6993;-73
2022/12/20 13:03:45;;;;;;;;;;;;;;;15.57;56.63;100063.16;4773756;29;8545;-73
2022/12/20 13:06:29;;;;;;;;;;;;;;;15.54;56.67;100062.28;4793950;29;7829;-73
2022/12/20 13:08:55;;;;;;;;;;;;;;;15.53;55.76;100059.63;4795214;29;6829;-73
2022/12/20 13:11:34;;;;;;;;;;;;;;;15.52;56.02;100063.94;4796441;29;7390;-73
2022/12/20 13:14:23;;;;;;;;;;;;;;;15.53;55.81;100059.63;4781525;29;6805;-73
2022/12/20 13:17:16;;;;;;;;;;;;;;;15.52;56.12;100055.31;4785930;29;6810;-73
2022/12/20 13:19:52;;;;;;;;;;;;;;;15.53;55.93;100065.69;4773168;29;7279;-73